Terminal Aerodrome Forecast
Issued by NWS Rapid City, SD

Home | Current Version | Previous Version | Text Only | Print | Product List | Glossary Off
Versions: 1 2 3 4 5 6 7 8 9 10 11 12 13 14 15 16 17 18 19

396
FTUS43 KUNR 202320
TAFRAP
TAF
KRAP 202320Z 2100/2124 15015KT P6SM -SHRA SCT008 BKN015
     FM210100 16013KT P6SM -SHRA BKN008 OVC015
     FM210500 17011KT P6SM OVC008
     FM211800 15013KT P6SM BKN020=

USA.gov is the U.S. government's official web portal to all federal, state and local government web resources and services.